^^
Station Historical Data
Daily Summary for May 26, 2017 Units:  English    Metric   Both
« Previous Day
Next Day »
Daily Weekly Monthly Yearly Custom
  High: Low: Average:
Temperature: 75.3 °F 53.7 °F 63 °F
Dew Point: 60.6 °F 52.9 °F 55.7 °F
Humidity: 98% 52% 79%
Wind Speed: 5.0mph 0.0mph 1.4mph
Wind Gust: 20.0mph - -
Wind- - South
Pressure: 29.81 in 29.47 in -
Precipitation: 1.00 in    
Historical Graphs
 
 
Tabular Data for May 26, 2017
Time Temperature Dew Point Pressure Wind Wind Speed Wind Gust Humidity Rainfall Rate (Hourly) Conditions
00:00 56.5 °F 55.4 °F 29.50 in Calm   4.0 mph 96% 0.00 in RA
00:15 56.3 °F 55.2 °F 29.52 in West 1.0 mph 6.0 mph 96% 0.04 in RA
00:30 56.2 °F 55.1 °F 29.51 in Calm   20.0 mph 96% 0.33 in RA
00:45 55.8 °F 54.7 °F 29.50 in North 1.0 mph 4.0 mph 96% 0.25 in RA
01:00 55.2 °F 54.1 °F 29.50 in Calm   4.0 mph 96% 0.13 in RA
02:15 54.0 °F 53.2 °F 29.47 in North 1.0 mph 9.0 mph 97% 0.04 in -RA
02:30 53.9 °F 53.0 °F 29.47 in Calm   3.0 mph 97% 0.00 in -RA
02:45 53.7 °F 52.9 °F 29.47 in Calm   4.0 mph 97% 0.00 in -RA
03:00 53.7 °F 52.9 °F 29.48 in Calm   3.0 mph 97% 0.01 in -RA
03:15 53.9 °F 53.1 °F 29.49 in North 1.0 mph 3.0 mph 97% 0.01 in RA
03:30 54.2 °F 53.4 °F 29.49 in Calm   5.0 mph 97% 0.01 in RA
03:45 54.3 °F 53.5 °F 29.50 in NW 1.0 mph 7.0 mph 97% 0.01 in RA
04:00 54.2 °F 53.4 °F 29.50 in Calm   4.0 mph 97% 0.00 in OVC
04:15 54.1 °F 53.3 °F 29.49 in Calm   3.0 mph 97% 0.01 in -RA
04:30 54.1 °F 53.3 °F 29.50 in WNW 1.0 mph 3.0 mph 97% 0.00 in -RA
04:45 53.9 °F 53.1 °F 29.51 in WNW 2.0 mph 5.0 mph 97% 0.01 in -RA
05:00 53.9 °F 53.0 °F 29.51 in Calm   5.0 mph 97% 0.02 in -RA
05:15 53.9 °F 53.1 °F 29.52 in North 1.0 mph 3.0 mph 97% 0.01 in -RA
05:30 53.9 °F 53.1 °F 29.53 in Calm   4.0 mph 97% 0.04 in -RA
05:45 53.8 °F 53.0 °F 29.54 in North 1.0 mph 3.0 mph 97% 0.02 in -RA
06:00 53.7 °F 52.9 °F 29.55 in Calm   3.0 mph 97% 0.02 in -RA
06:15 53.7 °F 52.9 °F 29.55 in Calm   2.0 mph 97% 0.02 in -RA
06:30 53.9 °F 53.3 °F 29.55 in Calm   2.0 mph 98% 0.00 in -RA
06:45 54.1 °F 53.5 °F 29.56 in Calm   1.0 mph 98% 0.00 in -RA
07:00 54.4 °F 53.8 °F 29.56 in Calm   1.0 mph 98% 0.01 in -RA
07:15 54.4 °F 53.8 °F 29.57 in Calm   2.0 mph 98% 0.00 in -RA
07:30 54.3 °F 53.7 °F 29.57 in Calm   4.0 mph 98% 0.00 in -RA
07:45 54.5 °F 53.9 °F 29.58 in Calm   4.0 mph 98% 0.00 in -RA
08:00 54.7 °F 54.1 °F 29.59 in Calm   2.0 mph 98% 0.01 in -RA
08:15 54.7 °F 54.1 °F 29.59 in Calm   2.0 mph 98% 0.00 in -RA
08:30 54.7 °F 54.2 °F 29.59 in Calm   3.0 mph 98% 0.00 in -RA
08:45 55.2 °F 54.6 °F 29.59 in NE 1.0 mph 3.0 mph 98% 0.00 in -RA
09:00 55.5 °F 54.6 °F 29.60 in SSW 1.0 mph 4.0 mph 97% 0.00 in -RA
09:15 56.1 °F 55.3 °F 29.60 in Calm   2.0 mph 97% 0.00 in BKN
09:30 56.5 °F 55.7 °F 29.60 in SSW 2.0 mph 4.0 mph 97% 0.00 in BKN
09:45 56.6 °F 55.5 °F 29.60 in WSW 1.0 mph 6.0 mph 96% 0.00 in BKN
10:00 57.2 °F 56.1 °F 29.59 in WSW 3.0 mph 5.0 mph 96% 0.00 in BKN
10:15 59.0 °F 57.6 °F 29.59 in WSW 2.0 mph 5.0 mph 95% 0.00 in BKN
10:30 58.8 °F 57.4 °F 29.59 in West 1.0 mph 6.0 mph 95% 0.00 in BKN
10:45 60.3 °F 58.3 °F 29.59 in WSW 1.0 mph 6.0 mph 93% 0.00 in BKN
11:00 61.6 °F 58.9 °F 29.59 in WNW 1.0 mph 6.0 mph 91% 0.00 in BKN
11:15 62.6 °F 59.6 °F 29.59 in WSW 1.0 mph 7.0 mph 90% 0.00 in BKN
11:30 63.7 °F 60.4 °F 29.59 in SW 3.0 mph 9.0 mph 89% 0.00 in BKN
11:45 64.8 °F 60.5 °F 29.60 in WSW 1.0 mph 9.0 mph 86% 0.00 in BKN
12:00 65.6 °F 60.6 °F 29.60 in South 1.0 mph 4.0 mph 84% 0.00 in BKN
12:15 66.7 °F 60.3 °F 29.60 in West 1.0 mph 5.0 mph 80% 0.00 in BKN
12:30 68.9 °F 60.6 °F 29.59 in West 2.0 mph 10.0 mph 75% 0.00 in BKN
12:45 70.8 °F 59.7 °F 29.59 in SSE 3.0 mph 10.0 mph 68% 0.00 in BKN
13:00 71.9 °F 59.0 °F 29.59 in SE 2.0 mph 12.0 mph 64% 0.00 in BKN
13:15 72.3 °F 59.0 °F 29.59 in SSW 3.0 mph 15.0 mph 63% 0.00 in BKN
13:30 73.1 °F 59.3 °F 29.60 in SW 2.0 mph 12.0 mph 62% 0.00 in BKN
13:45 71.8 °F 56.2 °F 29.60 in West 5.0 mph 12.0 mph 58% 0.00 in BKN
14:00 71.9 °F 57.3 °F 29.61 in NE 1.0 mph 8.0 mph 60% 0.00 in BKN
14:15 72.3 °F 56.7 °F 29.61 in SE 2.0 mph 8.0 mph 58% 0.00 in BKN
14:30 71.4 °F 57.2 °F 29.61 in West 3.0 mph 10.0 mph 61% 0.00 in BKN
14:45 72.0 °F 58.7 °F 29.62 in ESE 3.0 mph 9.0 mph 63% 0.00 in BKN
15:00 71.6 °F 57.0 °F 29.62 in West 5.0 mph 10.0 mph 60% 0.00 in BKN
15:15 72.6 °F 57.0 °F 29.62 in NE 3.0 mph 14.0 mph 58% 0.00 in BKN
15:30 73.0 °F 57.4 °F 29.62 in SSW 5.0 mph 15.0 mph 58% 0.00 in BKN
15:45 73.7 °F 57.6 °F 29.62 in NNE 1.0 mph 10.0 mph 57% 0.00 in BKN
16:00 73.6 °F 56.9 °F 29.62 in SW 3.0 mph 12.0 mph 56% 0.00 in BKN
16:15 73.8 °F 57.1 °F 29.62 in ENE 2.0 mph 9.0 mph 56% 0.00 in FEW
16:45 75.3 °F 56.5 °F 29.62 in South 5.0 mph 12.0 mph 52% 0.00 in FEW
17:00 75.3 °F 56.5 °F 29.63 in SE 2.0 mph 12.0 mph 52% 0.00 in FEW
17:15 74.9 °F 56.1 °F 29.63 in NNE 3.0 mph 10.0 mph 52% 0.00 in SCT
17:30 73.2 °F 56.1 °F 29.64 in ENE 2.0 mph 8.0 mph 55% 0.00 in SCT
17:45 72.3 °F 55.7 °F 29.64 in NNE 2.0 mph 8.0 mph 56% 0.00 in SCT
18:00 71.7 °F 56.1 °F 29.65 in NNW 1.0 mph 8.0 mph 58% 0.00 in SCT
18:15 73.1 °F 57.4 °F 29.66 in North 1.0 mph 5.0 mph 58% 0.00 in SCT
18:30 73.5 °F 57.8 °F 29.66 in NW 1.0 mph 7.0 mph 58% 0.00 in SCT
18:45 73.2 °F 57.5 °F 29.67 in ENE 1.0 mph 12.0 mph 58% 0.00 in SCT
19:00 72.6 °F 57.4 °F 29.68 in North 2.0 mph 7.0 mph 59% 0.00 in SCT
19:15 71.8 °F 56.2 °F 29.69 in WNW 2.0 mph 12.0 mph 58% 0.00 in SCT
19:30 70.9 °F 55.8 °F 29.70 in East 3.0 mph 14.0 mph 59% 0.00 in SCT
19:45 70.7 °F 56.6 °F 29.71 in NE 1.0 mph 8.0 mph 61% 0.00 in SCT
20:00 69.0 °F 55.5 °F 29.71 in NE 2.0 mph 9.0 mph 62% 0.00 in SCT
20:15 68.1 °F 55.5 °F 29.73 in NE 2.0 mph 8.0 mph 64% 0.00 in SCT
20:30 67.6 °F 55.0 °F 29.73 in NE 3.0 mph 13.0 mph 64% 0.00 in SCT
20:45 66.8 °F 55.5 °F 29.74 in ESE 2.0 mph 9.0 mph 67% 0.00 in SCT
21:00 66.3 °F 55.5 °F 29.75 in NNE 3.0 mph 9.0 mph 68% 0.00 in SCT
21:15 66.0 °F 55.6 °F 29.76 in Calm   9.0 mph 69% 0.00 in BKN
21:30 65.5 °F 55.5 °F 29.77 in NNW 2.0 mph 7.0 mph 70% 0.00 in BKN
21:45 65.3 °F 55.3 °F 29.77 in South 1.0 mph 8.0 mph 70% 0.00 in BKN
22:00 64.9 °F 54.9 °F 29.78 in NW 3.0 mph 7.0 mph 70% 0.00 in BKN
22:15 64.7 °F 55.1 °F 29.79 in SE 2.0 mph 8.0 mph 71% 0.00 in FEW
22:30 64.5 °F 54.9 °F 29.80 in NW 1.0 mph 6.0 mph 71% 0.00 in FEW
22:45 64.2 °F 55.0 °F 29.80 in East 1.0 mph 5.0 mph 72% 0.00 in FEW
23:00 63.8 °F 54.6 °F 29.80 in NW 1.0 mph 8.0 mph 72% 0.00 in FEW
23:15 63.7 °F 54.9 °F 29.80 in Calm   7.0 mph 73% 0.00 in FEW
23:30 63.4 °F 54.6 °F 29.81 in NE 1.0 mph 9.0 mph 73% 0.00 in FEW
23:45 62.9 °F 54.1 °F 29.80 in SSW 2.0 mph 6.0 mph 73% 0.00 in FEW
TarryTown NY Weather
Compliments of Weather Underground - 1.5 mb